Terminal Aerodrome Forecast
Issued by NWS Grand Forks, ND

Home | Current Version | Previous Version | Graphics & Text | Print | Product List | Glossary On
Versions: 1 2 3 4 5 6 7 8 9 10 11 12 13 14 15 16 17
000
FTUS43 KFGF 281739
TAFFAR
TAF
KFAR 281739Z 2818/2918 27004KT P6SM VCSH SCT006 BKN015
     FM281900 31011KT P6SM BKN015
     FM282000 31013KT P6SM BKN025
     FM282200 32013KT P6SM BKN045
     FM290000 33011KT P6SM SCT100=

USA.gov is the U.S. government's official web portal to all federal, state and local government web resources and services.